« Back
NWS Peachtree City, Ga » Text Product » ATL Terminal Aerodrome Forecast


Printer-friendly Version
Current Version              Previous Versions:   1  2  3  4  5  6  7  8  9  

Terminal Aerodrome Forecast

294
FTUS42 KFFC 012300 CCA
TAFATL
TAF COR
KATL 012344Z 0200/0306 10007KT P6SM SCT030 BKN080
     FM020700 07006KT 6SM BR BKN012
     FM020900 07005KT 6SM BR OVC009 PROB30 0212/0217 5SM -SHRA BR
     FM021700 06006KT P6SM SCT025 BKN035=

USA.gov is the U.S. government's official web portal to all federal, state and local government web resources and services.